Amor, Minnesota
Current Conditions -  °F | °C
As of 2:14 AM on Tuesday 21 Oct 2014 (Local Time) from KFFM Reporting Station
Clear Clear  
Wind Chill:   Ceiling: Unl
Heat Index:   Visibility: 10mi
Dew Point:   Wind: 8mph
Humidity: 71%   Direction: 120°ESE
Pressure: 30.1"   Gusts: NA
Location:  46.3166°N, 95.7183°W
Report Text: KFFM 210714Z AUTO 12007KT 10SM CLR 07/02 A3010 RMK AO2
Loading
Personal Weather Stations






























Interactive Weather Map
Tropical Storm Tracking
New forecast layout! Learn more

10-Day Weather Forecast

Advertisements
Track Severe Weather on mobile